Time;durP1;ratioP1;P1;durP2;ratioP2;P2;SDS_P1;SDS_P2;PMS_P1;PMS_P2;Temp;Humidity;BMP_temperature;BMP_pressure;BME280_temperature;BME280_humidity;BME280_pressure;Samples;Min_cycle;Max_cycle;Signal;HPM_P1;HPM_P2
2021/01/25 00:00:10;;;;;;;15.67;10.77;;;;;;;;;;5017940;28;20225;-65
2021/01/25 00:02:35;;;;;;;14.70;10.20;;;;;;;;;;5017444;28;20232;-65
2021/01/25 00:05:00;;;;;;;14.50;10.50;;;;;;;;;;5017958;28;20457;-65
2021/01/25 00:07:26;;;;;;;14.10;11.00;;;;;;;;;;5017768;28;20217;-66
2021/01/25 00:09:51;;;;;;;15.00;10.13;;;;;;;;;;5000944;28;20302;-65
2021/01/25 00:12:16;;;;;;;13.80;9.43;;;;;;;;;;5016959;28;20221;-65
2021/01/25 00:14:42;;;;;;;15.03;11.13;;;;;;;;;;5017270;28;20277;-66
2021/01/25 00:17:07;;;;;;;15.23;11.20;;;;;;;;;;5017357;28;20250;-65
2021/01/25 00:19:32;;;;;;;13.40;9.80;;;;;;;;;;5016705;28;20241;-65
2021/01/25 00:21:58;;;;;;;15.90;10.37;;;;;;;;;;5000492;28;20234;-65
2021/01/25 00:24:24;;;;;;;14.40;9.90;;;;;;;;;;5016708;28;20468;-65
2021/01/25 00:26:49;;;;;;;14.37;10.80;;;;;;;;;;5017042;28;20287;-64
2021/01/25 00:29:14;;;;;;;15.87;10.67;;;;;;;;;;4999899;28;20224;-65
2021/01/25 00:31:40;;;;;;;14.17;10.27;;;;;;;;;;5017056;28;20229;-65
2021/01/25 00:34:05;;;;;;;14.60;9.50;;;;;;;;;;5017586;28;20244;-65
2021/01/25 00:36:30;;;;;;;11.40;9.23;;;;;;;;;;5017022;28;20237;-65
2021/01/25 00:38:56;;;;;;;12.00;8.10;;;;;;;;;;5016746;28;20310;-65
2021/01/25 00:41:21;;;;;;;12.30;8.23;;;;;;;;;;5016342;28;20249;-64
2021/01/25 00:43:46;;;;;;;9.93;7.47;;;;;;;;;;5016943;28;20607;-65
2021/01/25 00:46:12;;;;;;;11.50;8.17;;;;;;;;;;4999628;28;20581;-65
2021/01/25 00:48:37;;;;;;;10.30;7.60;;;;;;;;;;5016379;28;20235;-65
2021/01/25 00:51:03;;;;;;;12.30;8.10;;;;;;;;;;5016702;28;20222;-65
2021/01/25 00:53:28;;;;;;;10.23;7.37;;;;;;;;;;5016602;28;20225;-66
2021/01/25 00:55:54;;;;;;;11.77;8.57;;;;;;;;;;5017211;28;20572;-65
2021/01/25 00:58:19;;;;;;;14.40;9.37;;;;;;;;;;5017048;28;20221;-66
2021/01/25 01:00:44;;;;;;;14.00;9.97;;;;;;;;;;5017172;28;20359;-66
2021/01/25 01:03:09;;;;;;;16.23;9.73;;;;;;;;;;5016756;28;20218;-66
2021/01/25 01:05:34;;;;;;;12.70;8.40;;;;;;;;;;5016550;28;20786;-65
2021/01/25 01:08:00;;;;;;;13.20;8.60;;;;;;;;;;4983403;28;20217;-65
2021/01/25 01:10:25;;;;;;;12.47;8.83;;;;;;;;;;5016055;28;20329;-65
2021/01/25 01:12:50;;;;;;;15.17;8.80;;;;;;;;;;5016421;28;20526;-66
2021/01/25 01:15:16;;;;;;;12.40;8.40;;;;;;;;;;5016613;28;20241;-64
2021/01/25 01:17:42;;;;;;;12.67;8.67;;;;;;;;;;5016038;28;20600;-64
2021/01/25 01:20:08;;;;;;;13.97;10.40;;;;;;;;;;4999176;28;20214;-65
2021/01/25 01:22:33;;;;;;;17.27;10.73;;;;;;;;;;5015577;28;20459;-65
2021/01/25 01:24:58;;;;;;;16.30;10.73;;;;;;;;;;4999034;28;20954;-65
2021/01/25 01:27:24;;;;;;;13.97;11.20;;;;;;;;;;5016022;28;20609;-64
2021/01/25 01:29:49;;;;;;;14.33;11.80;;;;;;;;;;5016513;28;20290;-64
2021/01/25 01:32:14;;;;;;;18.10;11.03;;;;;;;;;;5016554;28;20301;-64
2021/01/25 01:34:39;;;;;;;18.50;12.87;;;;;;;;;;5016294;28;20610;-64
2021/01/25 01:37:05;;;;;;;16.07;11.80;;;;;;;;;;5016734;28;20247;-64
2021/01/25 01:39:30;;;;;;;22.23;13.47;;;;;;;;;;5016834;28;20600;-64
2021/01/25 01:41:55;;;;;;;19.40;13.73;;;;;;;;;;5016591;28;20239;-64
2021/01/25 01:44:20;;;;;;;19.17;12.80;;;;;;;;;;5017526;28;20331;-64
2021/01/25 01:46:46;;;;;;;20.80;13.30;;;;;;;;;;5016786;28;20210;-64
2021/01/25 01:49:11;;;;;;;21.73;14.33;;;;;;;;;;4999484;28;20655;-65
2021/01/25 01:51:38;;;;;;;19.63;14.43;;;;;;;;;;5016555;28;20668;-65
2021/01/25 01:54:04;;;;;;;21.10;15.00;;;;;;;;;;5016744;28;20239;-65
2021/01/25 01:56:29;;;;;;;20.73;13.87;;;;;;;;;;4998471;28;21019;-65
2021/01/25 01:58:54;;;;;;;17.33;13.97;;;;;;;;;;5016451;28;20542;-64
2021/01/25 02:01:19;;;;;;;20.30;14.83;;;;;;;;;;5016034;28;20248;-64
2021/01/25 02:03:45;;;;;;;18.00;13.50;;;;;;;;;;4998554;28;20334;-64
2021/01/25 02:06:10;;;;;;;22.70;14.97;;;;;;;;;;5016414;28;20221;-64
2021/01/25 02:08:37;;;;;;;19.10;13.87;;;;;;;;;;4998883;28;20276;-65
2021/01/25 02:11:03;;;;;;;18.73;13.80;;;;;;;;;;5016052;28;20741;-65
2021/01/25 02:13:29;;;;;;;20.23;13.83;;;;;;;;;;5016123;28;20473;-64
2021/01/25 02:15:54;;;;;;;23.30;15.53;;;;;;;;;;5016539;28;20211;-64
2021/01/25 02:18:19;;;;;;;18.27;13.30;;;;;;;;;;5016211;28;21013;-64
2021/01/25 02:20:45;;;;;;;18.70;13.63;;;;;;;;;;5015335;28;20296;-65
2021/01/25 02:23:19;;;;;;;19.23;13.30;;;;;;;;;;5015670;28;20532;-64
2021/01/25 02:26:04;;;;;;;19.73;13.90;;;;;;;;;;4998115;28;20228;-64
2021/01/25 02:28:30;;;;;;;19.30;12.73;;;;;;;;;;5015533;28;20478;-65
2021/01/25 02:30:56;;;;;;;20.33;13.93;;;;;;;;;;5016191;28;20467;-65
2021/01/25 02:33:21;;;;;;;19.87;14.90;;;;;;;;;;5015896;28;20951;-64
2021/01/25 02:35:48;;;;;;;20.23;15.07;;;;;;;;;;4999411;28;20480;-64
2021/01/25 02:38:14;;;;;;;20.97;14.67;;;;;;;;;;5002772;28;20207;-64
2021/01/25 02:40:40;;;;;;;21.67;14.70;;;;;;;;;;5002033;28;20559;-65
2021/01/25 02:43:05;;;;;;;23.67;16.40;;;;;;;;;;5002280;28;20547;-64
2021/01/25 02:45:31;;;;;;;24.70;17.93;;;;;;;;;;5002752;28;20467;-64
2021/01/25 02:47:57;;;;;;;25.27;16.63;;;;;;;;;;5019954;28;20216;-65
2021/01/25 02:50:22;;;;;;;26.77;18.27;;;;;;;;;;5003119;28;20601;-65
2021/01/25 02:52:47;;;;;;;24.07;17.97;;;;;;;;;;5020004;28;20513;-65
2021/01/25 02:55:13;;;;;;;28.20;18.70;;;;;;;;;;5019787;28;20332;-65
2021/01/25 02:57:39;;;;;;;27.10;18.40;;;;;;;;;;5019022;28;20215;-65
2021/01/25 03:00:07;;;;;;;27.97;18.03;;;;;;;;;;5002414;28;20524;-65
2021/01/25 03:02:32;;;;;;;24.40;18.10;;;;;;;;;;5019030;28;20458;-65
2021/01/25 03:05:03;;;;;;;28.80;19.13;;;;;;;;;;5020113;28;20454;-65
2021/01/25 03:07:28;;;;;;;27.30;18.10;;;;;;;;;;5020179;28;20220;-65
2021/01/25 03:09:53;;;;;;;25.33;18.43;;;;;;;;;;5020115;28;20451;-64
2021/01/25 03:12:19;;;;;;;20.87;14.50;;;;;;;;;;5003134;28;20274;-64
2021/01/25 03:14:44;;;;;;;18.23;13.20;;;;;;;;;;5002691;28;20212;-65
2021/01/25 03:17:10;;;;;;;26.87;17.83;;;;;;;;;;5019921;28;20217;-65
2021/01/25 03:19:35;;;;;;;21.57;15.00;;;;;;;;;;5019313;28;20312;-65
2021/01/25 03:22:00;;;;;;;17.00;13.70;;;;;;;;;;5019282;28;20564;-65
2021/01/25 03:24:26;;;;;;;18.60;13.40;;;;;;;;;;5019743;28;20296;-65
2021/01/25 03:26:51;;;;;;;17.07;13.53;;;;;;;;;;5008701;28;20216;-64
2021/01/25 03:29:16;;;;;;;16.53;12.23;;;;;;;;;;5019245;28;20303;-64
2021/01/25 03:31:41;;;;;;;16.63;12.23;;;;;;;;;;5019321;28;20220;-64
2021/01/25 03:34:10;;;;;;;17.57;12.10;;;;;;;;;;5001837;28;20608;-64
2021/01/25 03:36:35;;;;;;;16.43;11.90;;;;;;;;;;5018639;28;20223;-64
2021/01/25 03:39:01;;;;;;;21.23;13.67;;;;;;;;;;5018861;28;20987;-65
2021/01/25 03:41:27;;;;;;;19.37;13.60;;;;;;;;;;5018756;28;20631;-65
2021/01/25 03:43:52;;;;;;;19.17;13.17;;;;;;;;;;5018416;28;20676;-65
2021/01/25 03:46:17;;;;;;;19.30;12.33;;;;;;;;;;5018364;28;20227;-65
2021/01/25 03:48:42;;;;;;;14.00;11.00;;;;;;;;;;5018179;28;20271;-64
2021/01/25 03:51:08;;;;;;;18.60;12.73;;;;;;;;;;5018902;28;20322;-64
2021/01/25 03:53:33;;;;;;;13.40;10.50;;;;;;;;;;5018541;28;20218;-65
2021/01/25 03:55:58;;;;;;;16.10;12.13;;;;;;;;;;5018840;28;20217;-65
2021/01/25 03:58:24;;;;;;;14.00;10.73;;;;;;;;;;5018728;28;20224;-65
2021/01/25 04:00:49;;;;;;;15.47;11.07;;;;;;;;;;5018175;28;20336;-64
2021/01/25 04:03:14;;;;;;;15.33;11.07;;;;;;;;;;5018761;28;20649;-65
2021/01/25 04:05:39;;;;;;;15.40;11.33;;;;;;;;;;5017884;28;20223;-65
2021/01/25 04:08:05;;;;;;;15.33;12.43;;;;;;;;;;5018333;28;20296;-65
2021/01/25 04:10:30;;;;;;;15.70;11.03;;;;;;;;;;5017913;28;20298;-65
2021/01/25 04:12:55;;;;;;;16.50;12.10;;;;;;;;;;5000034;28;20293;-65
2021/01/25 04:15:20;;;;;;;16.57;12.67;;;;;;;;;;5017976;28;20706;-65
2021/01/25 04:17:46;;;;;;;19.67;11.97;;;;;;;;;;5017523;28;20301;-65
2021/01/25 04:20:11;;;;;;;16.07;12.37;;;;;;;;;;5017769;28;20228;-65
2021/01/25 04:22:39;;;;;;;13.67;10.43;;;;;;;;;;5017166;28;20333;-65
2021/01/25 04:25:06;;;;;;;15.03;10.80;;;;;;;;;;5017927;28;20221;-65
2021/01/25 04:27:31;;;;;;;16.13;11.70;;;;;;;;;;5017888;28;20936;-65
2021/01/25 04:29:56;;;;;;;19.37;13.10;;;;;;;;;;5017140;28;20481;-65
2021/01/25 04:32:22;;;;;;;14.67;11.13;;;;;;;;;;5017281;28;20218;-65
2021/01/25 04:34:47;;;;;;;12.63;10.40;;;;;;;;;;5016292;28;20219;-65
2021/01/25 04:37:13;;;;;;;14.77;11.73;;;;;;;;;;5017482;28;20695;-65
2021/01/25 04:39:38;;;;;;;14.60;10.77;;;;;;;;;;5016401;28;20230;-65
2021/01/25 04:42:04;;;;;;;13.30;10.27;;;;;;;;;;5016493;28;20305;-65
2021/01/25 04:44:31;;;;;;;13.90;11.20;;;;;;;;;;4999650;28;20217;-64
2021/01/25 04:46:56;;;;;;;16.60;12.00;;;;;;;;;;5015993;28;20456;-65
2021/01/25 04:49:22;;;;;;;16.97;12.10;;;;;;;;;;4999520;28;20449;-65
2021/01/25 04:51:48;;;;;;;14.53;11.40;;;;;;;;;;5016024;28;20218;-65
2021/01/25 04:54:14;;;;;;;16.50;11.97;;;;;;;;;;4999437;28;20268;-65
2021/01/25 04:56:40;;;;;;;14.10;12.07;;;;;;;;;;5015560;28;20650;-65
2021/01/25 04:59:05;;;;;;;17.83;12.33;;;;;;;;;;5014976;28;20493;-65
2021/01/25 05:01:31;;;;;;;19.73;11.03;;;;;;;;;;4998899;28;20480;-65
2021/01/25 05:03:56;;;;;;;16.87;11.40;;;;;;;;;;5015727;28;20218;-65
2021/01/25 05:06:21;;;;;;;15.27;12.43;;;;;;;;;;5016423;28;20302;-65
2021/01/25 05:08:46;;;;;;;14.27;11.47;;;;;;;;;;5015475;28;20222;-65
2021/01/25 05:11:12;;;;;;;19.63;13.73;;;;;;;;;;5016304;28;20221;-65
2021/01/25 05:13:38;;;;;;;18.23;14.10;;;;;;;;;;5016170;28;20240;-64
2021/01/25 05:16:17;;;;;;;22.03;14.63;;;;;;;;;;5016535;28;20460;-64
2021/01/25 05:18:42;;;;;;;22.13;15.43;;;;;;;;;;5016440;28;20222;-64
2021/01/25 05:21:08;;;;;;;21.10;15.03;;;;;;;;;;5016833;28;20519;-64
2021/01/25 05:23:38;;;;;;;20.27;14.00;;;;;;;;;;5016971;28;20491;-64
2021/01/25 05:26:07;;;;;;;21.10;16.70;;;;;;;;;;4999208;28;20300;-63
2021/01/25 05:28:42;;;;;;;23.30;15.60;;;;;;;;;;5016681;28;20490;-64
2021/01/25 05:31:18;;;;;;;20.70;14.93;;;;;;;;;;5017050;28;20468;-63
2021/01/25 05:33:43;;;;;;;27.17;17.20;;;;;;;;;;5016651;28;20456;-64
2021/01/25 05:36:09;;;;;;;23.60;16.70;;;;;;;;;;5016679;28;20448;-64
2021/01/25 05:38:34;;;;;;;24.00;18.93;;;;;;;;;;5016156;28;20222;-65
2021/01/25 05:41:03;;;;;;;21.53;16.20;;;;;;;;;;5015688;28;20232;-64
2021/01/25 05:43:33;;;;;;;22.63;16.90;;;;;;;;;;5015532;28;20311;-64
2021/01/25 05:46:14;;;;;;;28.60;19.47;;;;;;;;;;5015590;28;20981;-64
2021/01/25 05:48:40;;;;;;;30.60;20.97;;;;;;;;;;5016884;28;20499;-65
2021/01/25 05:51:16;;;;;;;27.93;20.57;;;;;;;;;;5017085;28;20460;-65
2021/01/25 05:53:43;;;;;;;30.80;21.30;;;;;;;;;;5017046;28;20622;-65
2021/01/25 05:56:09;;;;;;;31.73;19.43;;;;;;;;;;5016289;28;20451;-65
2021/01/25 05:58:35;;;;;;;28.73;21.17;;;;;;;;;;5016570;28;21004;-65
2021/01/25 06:01:00;;;;;;;29.40;21.70;;;;;;;;;;5016270;28;20459;-64
2021/01/25 06:03:27;;;;;;;31.60;21.70;;;;;;;;;;5016372;28;20212;-64
2021/01/25 06:05:52;;;;;;;32.17;23.00;;;;;;;;;;5015372;28;20288;-64
2021/01/25 06:08:30;;;;;;;38.20;23.60;;;;;;;;;;5015855;28;20917;-65
2021/01/25 06:11:08;;;;;;;37.60;24.63;;;;;;;;;;4998609;28;20325;-65
2021/01/25 06:13:53;;;;;;;33.67;22.30;;;;;;;;;;5016417;28;20963;-65
2021/01/25 06:16:23;;;;;;;31.17;22.67;;;;;;;;;;5015669;28;20455;-64
2021/01/25 06:18:48;;;;;;;34.30;23.83;;;;;;;;;;5015903;28;20476;-64
2021/01/25 06:21:18;;;;;;;35.93;23.30;;;;;;;;;;4998672;28;20783;-64
2021/01/25 06:23:45;;;;;;;34.17;22.60;;;;;;;;;;5016422;28;20247;-65
2021/01/25 06:26:10;;;;;;;37.20;25.53;;;;;;;;;;5016023;28;20475;-64
2021/01/25 06:28:35;;;;;;;35.40;24.17;;;;;;;;;;4999078;28;20464;-64
2021/01/25 06:31:00;;;;;;;36.07;22.50;;;;;;;;;;5015766;28;20241;-64
2021/01/25 06:33:26;;;;;;;32.67;21.47;;;;;;;;;;5016520;28;20220;-65
2021/01/25 06:35:52;;;;;;;38.23;23.07;;;;;;;;;;5016194;28;20219;-65
2021/01/25 06:38:19;;;;;;;32.83;21.83;;;;;;;;;;5016003;28;20213;-65
2021/01/25 06:40:45;;;;;;;36.23;22.80;;;;;;;;;;5016743;28;20762;-65
2021/01/25 06:43:13;;;;;;;30.60;21.80;;;;;;;;;;5015484;28;20479;-65
2021/01/25 06:45:39;;;;;;;36.50;22.30;;;;;;;;;;5015968;28;20456;-65
2021/01/25 06:48:07;;;;;;;34.77;23.00;;;;;;;;;;5016337;28;20537;-65
2021/01/25 06:50:32;;;;;;;28.00;20.53;;;;;;;;;;5016302;28;20213;-65
2021/01/25 06:52:57;;;;;;;31.37;21.13;;;;;;;;;;4998849;28;20454;-64
2021/01/25 06:55:23;;;;;;;32.70;24.03;;;;;;;;;;5016113;28;20649;-64
2021/01/25 06:57:49;;;;;;;40.50;25.40;;;;;;;;;;4998482;28;20676;-64
2021/01/25 07:00:19;;;;;;;42.20;24.73;;;;;;;;;;4998189;28;20463;-64
2021/01/25 07:02:55;;;;;;;38.57;25.77;;;;;;;;;;4998578;28;20235;-64
2021/01/25 07:05:21;;;;;;;33.13;23.03;;;;;;;;;;5015512;28;20485;-64
2021/01/25 07:07:47;;;;;;;38.07;23.57;;;;;;;;;;5015992;28;20521;-64
2021/01/25 07:10:15;;;;;;;39.60;25.77;;;;;;;;;;5015529;28;20960;-64
2021/01/25 07:12:40;;;;;;;41.80;25.57;;;;;;;;;;4998679;28;20225;-64
2021/01/25 07:15:06;;;;;;;40.87;27.63;;;;;;;;;;4998495;28;20951;-64
2021/01/25 07:17:31;;;;;;;34.30;22.80;;;;;;;;;;5016224;28;20221;-65
2021/01/25 07:19:57;;;;;;;40.77;26.00;;;;;;;;;;5015760;28;20490;-64
2021/01/25 07:22:24;;;;;;;39.40;25.57;;;;;;;;;;5017698;28;21643;-64
2021/01/25 07:24:49;;;;;;;39.50;25.63;;;;;;;;;;5002897;28;20464;-65
2021/01/25 07:27:17;;;;;;;36.30;25.40;;;;;;;;;;5001975;28;20468;-64
2021/01/25 07:29:45;;;;;;;39.40;25.63;;;;;;;;;;5019428;28;20684;-64
2021/01/25 07:32:12;;;;;;;38.73;24.83;;;;;;;;;;5018956;28;20470;-64
2021/01/25 07:34:37;;;;;;;32.17;22.00;;;;;;;;;;5018664;28;20483;-64
2021/01/25 07:37:02;;;;;;;31.53;20.90;;;;;;;;;;5018436;28;20459;-64
2021/01/25 07:39:29;;;;;;;32.53;21.70;;;;;;;;;;5019020;28;20252;-64
2021/01/25 07:41:56;;;;;;;35.00;22.30;;;;;;;;;;5018409;28;20240;-64
2021/01/25 07:44:24;;;;;;;31.90;21.67;;;;;;;;;;5018492;28;20488;-64
2021/01/25 07:46:50;;;;;;;31.00;21.60;;;;;;;;;;5001983;28;20504;-65
2021/01/25 07:49:25;;;;;;;28.07;20.43;;;;;;;;;;5001570;28;20539;-65
2021/01/25 07:51:50;;;;;;;34.17;24.07;;;;;;;;;;5019527;28;20493;-64
2021/01/25 07:54:16;;;;;;;37.70;23.60;;;;;;;;;;5019049;28;20466;-65
2021/01/25 07:56:41;;;;;;;36.33;23.47;;;;;;;;;;5019206;28;20290;-64
2021/01/25 07:59:16;;;;;;;30.13;20.43;;;;;;;;;;5018118;28;20227;-64
2021/01/25 08:01:52;;;;;;;33.57;21.97;;;;;;;;;;5018338;28;20232;-65
2021/01/25 08:04:23;;;;;;;29.60;21.63;;;;;;;;;;5000893;28;20757;-64
2021/01/25 08:06:52;;;;;;;32.70;21.43;;;;;;;;;;5018880;28;20525;-64
2021/01/25 08:09:20;;;;;;;30.07;20.47;;;;;;;;;;5001204;28;20459;-64
2021/01/25 08:11:45;;;;;;;30.10;19.03;;;;;;;;;;5018417;28;20831;-65
2021/01/25 08:14:25;;;;;;;27.97;20.33;;;;;;;;;;5000991;28;20527;-64
2021/01/25 08:16:55;;;;;;;34.77;22.00;;;;;;;;;;5018286;28;20220;-64
2021/01/25 08:19:25;;;;;;;31.17;20.30;;;;;;;;;;5000554;28;20480;-65
2021/01/25 08:22:02;;;;;;;27.07;19.70;;;;;;;;;;5017914;28;20463;-64
2021/01/25 08:24:28;;;;;;;31.10;20.73;;;;;;;;;;5017885;28;20442;-64
2021/01/25 08:26:55;;;;;;;34.80;22.17;;;;;;;;;;5000989;28;20949;-65
2021/01/25 08:29:26;;;;;;;34.43;19.30;;;;;;;;;;5000346;28;20212;-64
2021/01/25 08:31:51;;;;;;;27.30;19.83;;;;;;;;;;5000433;28;20750;-65
2021/01/25 08:34:28;;;;;;;27.80;19.90;;;;;;;;;;5016331;28;20467;-65
2021/01/25 08:37:09;;;;;;;30.47;20.63;;;;;;;;;;5017809;28;20210;-65
2021/01/25 08:39:41;;;;;;;32.00;20.10;;;;;;;;;;5017356;28;20452;-64
2021/01/25 08:42:17;;;;;;;31.03;22.20;;;;;;;;;;5017750;28;20552;-63
2021/01/25 08:44:51;;;;;;;30.83;22.20;;;;;;;;;;5017550;28;20517;-64
2021/01/25 08:47:23;;;;;;;30.23;20.53;;;;;;;;;;5000989;28;20463;-64
2021/01/25 08:49:49;;;;;;;30.07;19.77;;;;;;;;;;5000499;28;20452;-64
2021/01/25 08:52:25;;;;;;;35.47;21.67;;;;;;;;;;5000425;28;20847;-65
2021/01/25 08:54:51;;;;;;;29.43;21.20;;;;;;;;;;5018033;28;21213;-65
2021/01/25 08:57:19;;;;;;;31.27;20.83;;;;;;;;;;5018086;28;20470;-65
2021/01/25 08:59:44;;;;;;;29.43;20.20;;;;;;;;;;5016982;28;20232;-64
2021/01/25 09:02:21;;;;;;;30.90;21.30;;;;;;;;;;5017618;28;20994;-65
2021/01/25 09:04:49;;;;;;;35.80;22.20;;;;;;;;;;5017882;28;20279;-65
2021/01/25 09:07:18;;;;;;;27.90;20.53;;;;;;;;;;5000414;28;20458;-65
2021/01/25 09:09:43;;;;;;;38.30;20.83;;;;;;;;;;5016771;28;20463;-65
2021/01/25 09:12:09;;;;;;;30.97;20.83;;;;;;;;;;5017229;28;20475;-66
2021/01/25 09:14:35;;;;;;;31.80;20.67;;;;;;;;;;5017218;28;20599;-64
2021/01/25 09:17:00;;;;;;;37.70;22.13;;;;;;;;;;5017719;28;20488;-65
2021/01/25 09:19:25;;;;;;;29.90;20.70;;;;;;;;;;5017809;28;20287;-64
2021/01/25 09:21:51;;;;;;;33.10;21.07;;;;;;;;;;5016608;28;20230;-65
2021/01/25 09:24:16;;;;;;;24.03;17.87;;;;;;;;;;5017440;28;20682;-64
2021/01/25 09:26:41;;;;;;;29.20;20.03;;;;;;;;;;5017327;28;20221;-65
2021/01/25 09:29:06;;;;;;;28.67;20.27;;;;;;;;;;5017236;28;20319;-65
2021/01/25 09:31:32;;;;;;;26.63;18.07;;;;;;;;;;5016338;28;20235;-64
2021/01/25 09:33:57;;;;;;;27.23;18.83;;;;;;;;;;5016575;28;20558;-65
2021/01/25 09:36:23;;;;;;;30.47;21.70;;;;;;;;;;5016808;28;20286;-65
2021/01/25 09:38:48;;;;;;;30.43;20.70;;;;;;;;;;5016715;28;20227;-65
2021/01/25 09:41:15;;;;;;;29.67;19.50;;;;;;;;;;4998899;28;20217;-64
2021/01/25 09:43:40;;;;;;;33.13;21.63;;;;;;;;;;5016231;28;20261;-65
2021/01/25 09:46:05;;;;;;;30.07;19.93;;;;;;;;;;5016398;28;20543;-65
2021/01/25 09:48:31;;;;;;;32.17;19.80;;;;;;;;;;5016117;28;20232;-65
2021/01/25 09:50:56;;;;;;;33.07;22.87;;;;;;;;;;5016707;28;20292;-65
2021/01/25 09:53:21;;;;;;;30.60;16.93;;;;;;;;;;5016554;28;20215;-65
2021/01/25 09:55:50;;;;;;;27.43;18.70;;;;;;;;;;5015756;28;20703;-65
2021/01/25 09:58:15;;;;;;;26.80;19.10;;;;;;;;;;5015534;28;20213;-65
2021/01/25 10:00:40;;;;;;;24.37;16.93;;;;;;;;;;5015273;28;20548;-65
2021/01/25 10:03:05;;;;;;;27.57;18.23;;;;;;;;;;5015749;28;20216;-64
2021/01/25 10:05:31;;;;;;;30.27;20.23;;;;;;;;;;5015489;28;20226;-65
2021/01/25 10:07:56;;;;;;;27.40;18.17;;;;;;;;;;5016488;28;20229;-65
2021/01/25 10:10:24;;;;;;;27.30;16.57;;;;;;;;;;5016145;28;20668;-66
2021/01/25 10:12:50;;;;;;;25.90;17.67;;;;;;;;;;5015616;28;20525;-64
2021/01/25 10:15:15;;;;;;;26.97;20.03;;;;;;;;;;5016566;28;20965;-65
2021/01/25 10:17:41;;;;;;;30.47;23.47;;;;;;;;;;5015812;28;20236;-65
2021/01/25 10:20:07;;;;;;;27.93;19.47;;;;;;;;;;5016499;28;20228;-65
2021/01/25 10:22:32;;;;;;;29.87;20.80;;;;;;;;;;5015757;28;20249;-64
2021/01/25 10:24:57;;;;;;;31.20;19.97;;;;;;;;;;5016047;28;20849;-65
2021/01/25 10:27:23;;;;;;;27.17;16.80;;;;;;;;;;5015818;28;20233;-65
2021/01/25 10:29:48;;;;;;;24.03;15.67;;;;;;;;;;4998748;28;20221;-65
2021/01/25 10:32:15;;;;;;;26.87;16.70;;;;;;;;;;5015997;28;20219;-66
2021/01/25 10:34:41;;;;;;;24.30;14.10;;;;;;;;;;5015485;28;20272;-65
2021/01/25 10:37:09;;;;;;;20.10;14.10;;;;;;;;;;5015560;28;20548;-64
2021/01/25 10:39:34;;;;;;;20.10;14.50;;;;;;;;;;4998745;28;20465;-65
2021/01/25 10:42:00;;;;;;;22.87;15.23;;;;;;;;;;5004963;28;20561;-65
2021/01/25 10:44:25;;;;;;;30.23;14.00;;;;;;;;;;5014755;28;20224;-65
2021/01/25 10:46:50;;;;;;;18.67;13.80;;;;;;;;;;5015126;28;20222;-67
2021/01/25 10:49:16;;;;;;;22.47;12.43;;;;;;;;;;5015912;28;20251;-66
2021/01/25 10:51:42;;;;;;;22.47;15.93;;;;;;;;;;4998148;28;20235;-66
2021/01/25 10:54:07;;;;;;;24.80;13.40;;;;;;;;;;5016286;28;20449;-65
2021/01/25 10:56:32;;;;;;;18.67;13.00;;;;;;;;;;5035336;28;20776;-65
2021/01/25 10:58:57;;;;;;;30.47;13.33;;;;;;;;;;5025009;28;20244;-64
2021/01/25 11:01:23;;;;;;;23.63;14.53;;;;;;;;;;5019524;28;20227;-64
2021/01/25 11:03:48;;;;;;;19.43;12.50;;;;;;;;;;5019086;28;20214;-65
2021/01/25 11:06:14;;;;;;;16.40;12.20;;;;;;;;;;5019705;28;20275;-64
2021/01/25 11:08:40;;;;;;;18.67;11.17;;;;;;;;;;5020266;28;20218;-64
2021/01/25 11:11:05;;;;;;;18.93;11.60;;;;;;;;;;5009485;28;20464;-64
2021/01/25 11:13:31;;;;;;;20.60;13.70;;;;;;;;;;5024023;28;20218;-64
2021/01/25 11:15:56;;;;;;;24.60;12.00;;;;;;;;;;5018644;28;20228;-65
2021/01/25 11:18:23;;;;;;;20.87;12.70;;;;;;;;;;5038261;28;20624;-65
2021/01/25 11:20:48;;;;;;;17.00;12.13;;;;;;;;;;5020785;28;20240;-65
2021/01/25 11:23:14;;;;;;;18.83;12.77;;;;;;;;;;5038730;28;20451;-65
2021/01/25 11:25:39;;;;;;;16.40;11.47;;;;;;;;;;5038240;28;20273;-66
2021/01/25 11:28:04;;;;;;;19.67;12.83;;;;;;;;;;5031740;28;20281;-64
2021/01/25 11:30:29;;;;;;;17.77;13.07;;;;;;;;;;5019295;28;20228;-65
2021/01/25 11:32:55;;;;;;;19.03;13.13;;;;;;;;;;5018520;28;20296;-67
2021/01/25 11:35:20;;;;;;;18.03;13.53;;;;;;;;;;5001603;28;20658;-65
2021/01/25 11:37:45;;;;;;;17.77;12.80;;;;;;;;;;5018171;28;20237;-65
2021/01/25 11:40:11;;;;;;;24.20;13.73;;;;;;;;;;5018992;28;20718;-64
2021/01/25 11:42:36;;;;;;;20.53;13.70;;;;;;;;;;5019276;28;20252;-64
2021/01/25 11:45:03;;;;;;;19.13;14.07;;;;;;;;;;5001343;28;20280;-65
2021/01/25 11:47:28;;;;;;;21.37;13.80;;;;;;;;;;5031592;28;20318;-65
2021/01/25 11:49:53;;;;;;;21.00;14.30;;;;;;;;;;5037781;28;20539;-64
2021/01/25 11:52:19;;;;;;;23.37;14.80;;;;;;;;;;5038396;28;20247;-66
2021/01/25 11:54:45;;;;;;;22.93;15.07;;;;;;;;;;5038137;28;20559;-65
2021/01/25 11:57:10;;;;;;;19.80;14.97;;;;;;;;;;5038641;28;20307;-65
2021/01/25 11:59:35;;;;;;;21.13;14.20;;;;;;;;;;5038398;28;20232;-65
2021/01/25 12:02:00;;;;;;;19.67;14.20;;;;;;;;;;5032194;28;20218;-65
2021/01/25 12:04:26;;;;;;;20.33;14.03;;;;;;;;;;5018594;28;20240;-66
2021/01/25 12:06:52;;;;;;;18.70;13.10;;;;;;;;;;5000855;28;20235;-66
2021/01/25 12:09:18;;;;;;;21.90;14.27;;;;;;;;;;5018414;28;20240;-65
2021/01/25 12:11:43;;;;;;;26.20;16.70;;;;;;;;;;5017932;28;20492;-65
2021/01/25 12:14:08;;;;;;;26.83;15.77;;;;;;;;;;5018560;28;20232;-65
2021/01/25 12:16:33;;;;;;;26.27;17.20;;;;;;;;;;5017994;28;20280;-65
2021/01/25 12:18:59;;;;;;;23.07;14.80;;;;;;;;;;5018065;28;20316;-64
2021/01/25 12:21:24;;;;;;;25.03;15.07;;;;;;;;;;5030527;28;20225;-64
2021/01/25 12:23:49;;;;;;;22.33;14.50;;;;;;;;;;5037615;28;20645;-65
2021/01/25 12:26:15;;;;;;;18.73;14.07;;;;;;;;;;5037639;28;20224;-66
2021/01/25 12:28:40;;;;;;;18.50;13.17;;;;;;;;;;5036900;28;20335;-65
2021/01/25 12:31:06;;;;;;;21.80;14.70;;;;;;;;;;5037651;28;20231;-64
2021/01/25 12:33:31;;;;;;;23.70;14.70;;;;;;;;;;5038337;28;20677;-65
2021/01/25 12:35:57;;;;;;;21.27;15.40;;;;;;;;;;5037302;28;20228;-65
2021/01/25 12:38:22;;;;;;;22.87;14.50;;;;;;;;;;5037927;28;20460;-65
2021/01/25 12:40:47;;;;;;;21.70;14.77;;;;;;;;;;5019815;28;20231;-65
2021/01/25 12:43:12;;;;;;;27.53;16.10;;;;;;;;;;5037604;28;20238;-66
2021/01/25 12:45:38;;;;;;;28.23;17.90;;;;;;;;;;5037177;28;20264;-65
2021/01/25 12:48:03;;;;;;;24.90;16.37;;;;;;;;;;5036917;28;20214;-65
2021/01/25 12:50:29;;;;;;;27.80;16.17;;;;;;;;;;5037349;28;20613;-65
2021/01/25 12:52:54;;;;;;;23.83;15.30;;;;;;;;;;5036520;28;20228;-66
2021/01/25 12:55:20;;;;;;;27.23;17.43;;;;;;;;;;5036700;28;20224;-65
2021/01/25 12:57:46;;;;;;;22.83;13.83;;;;;;;;;;5035898;28;20216;-64
2021/01/25 13:00:20;;;;;;;21.93;15.33;;;;;;;;;;5036228;28;20554;-66
2021/01/25 13:02:45;;;;;;;26.63;16.77;;;;;;;;;;5006970;28;20231;-66
2021/01/25 13:05:12;;;;;;;20.60;14.43;;;;;;;;;;5016378;28;20461;-65
2021/01/25 13:07:38;;;;;;;24.03;14.30;;;;;;;;;;5016963;28;20215;-65
2021/01/25 13:10:04;;;;;;;24.57;14.87;;;;;;;;;;5016021;28;20539;-65
2021/01/25 13:12:30;;;;;;;23.87;14.90;;;;;;;;;;5016037;28;20237;-64
2021/01/25 13:14:55;;;;;;;19.50;13.97;;;;;;;;;;5015723;28;20229;-65
2021/01/25 13:17:21;;;;;;;25.60;15.70;;;;;;;;;;4999404;28;20517;-64
2021/01/25 13:19:46;;;;;;;26.13;16.50;;;;;;;;;;5030537;28;20664;-65
2021/01/25 13:22:12;;;;;;;21.57;16.20;;;;;;;;;;5018557;28;20218;-65
2021/01/25 13:24:37;;;;;;;29.00;16.97;;;;;;;;;;4999248;28;20286;-65
2021/01/25 13:27:02;;;;;;;20.87;14.40;;;;;;;;;;5016208;28;20226;-65
2021/01/25 13:29:27;;;;;;;20.83;15.30;;;;;;;;;;5016681;28;20252;-65
2021/01/25 13:31:53;;;;;;;28.67;17.60;;;;;;;;;;5016227;28;20694;-65
2021/01/25 13:34:18;;;;;;;21.37;16.10;;;;;;;;;;5016537;28;20223;-65
2021/01/25 13:36:43;;;;;;;25.60;15.03;;;;;;;;;;5016387;28;20230;-66
2021/01/25 13:39:09;;;;;;;20.40;14.97;;;;;;;;;;5015740;28;20234;-65
2021/01/25 13:41:34;;;;;;;26.03;16.07;;;;;;;;;;4999469;28;20681;-65
2021/01/25 13:43:59;;;;;;;23.77;15.83;;;;;;;;;;5016678;28;20226;-65
2021/01/25 13:46:25;;;;;;;27.40;14.63;;;;;;;;;;5016130;28;20222;-65
2021/01/25 13:48:50;;;;;;;22.23;14.60;;;;;;;;;;5015378;28;20760;-64
2021/01/25 13:51:15;;;;;;;24.67;15.40;;;;;;;;;;5015996;28;20218;-65
2021/01/25 13:53:41;;;;;;;26.27;16.10;;;;;;;;;;5016366;28;20233;-65
2021/01/25 13:56:07;;;;;;;26.43;18.33;;;;;;;;;;5015686;28;20218;-64
2021/01/25 13:58:32;;;;;;;34.43;22.13;;;;;;;;;;5016311;28;20240;-64
2021/01/25 14:00:57;;;;;;;34.67;21.83;;;;;;;;;;5014902;28;20384;-65
2021/01/25 14:03:24;;;;;;;41.50;22.90;;;;;;;;;;5016361;28;20221;-65
2021/01/25 14:05:49;;;;;;;27.27;19.40;;;;;;;;;;5015589;28;20223;-64
2021/01/25 14:08:14;;;;;;;27.07;16.47;;;;;;;;;;5016594;28;20551;-64
2021/01/25 14:10:39;;;;;;;27.07;18.53;;;;;;;;;;5016433;28;20217;-64
2021/01/25 14:13:05;;;;;;;29.27;17.90;;;;;;;;;;5015899;28;20219;-64